createdAt,value
2023-04-26T00:00:09.943Z,4.00
2023-04-26T00:02:38.675Z,3.00
2023-04-26T00:05:08.716Z,2.50
2023-04-26T00:07:39.205Z,3.50
2023-04-26T00:10:09.388Z,3.00
2023-04-26T00:12:38.571Z,3.00
2023-04-26T00:15:07.512Z,2.00
2023-04-26T00:17:35.995Z,3.00
2023-04-26T00:20:07.624Z,4.25
2023-04-26T00:22:36.039Z,4.25
2023-04-26T00:25:04.776Z,2.00
2023-04-26T00:27:33.319Z,3.75
2023-04-26T00:30:01.932Z,4.00
2023-04-26T00:32:32.174Z,3.50
2023-04-26T00:35:01.007Z,4.00
2023-04-26T00:37:29.867Z,3.00
2023-04-26T00:39:58.409Z,3.00
2023-04-26T00:42:29.340Z,3.00
2023-04-26T00:44:58.536Z,4.00
2023-04-26T00:47:28.078Z,3.25
2023-04-26T00:49:57.320Z,4.00
2023-04-26T00:52:27.661Z,2.00
2023-04-26T00:54:57.378Z,2.25
2023-04-26T00:57:26.161Z,3.25
2023-04-26T00:59:54.553Z,2.75
2023-04-26T01:02:23.162Z,3.25
2023-04-26T01:04:51.846Z,3.50
2023-04-26T01:07:20.253Z,1.75
2023-04-26T01:09:50.413Z,3.00
2023-04-26T01:12:19.144Z,2.50
2023-04-26T01:14:48.227Z,1.25
2023-04-26T01:17:16.705Z,3.00
2023-04-26T01:19:52.067Z,1.50
2023-04-26T01:22:20.543Z,2.75
2023-04-26T01:24:52.383Z,2.50
2023-04-26T01:27:20.867Z,2.25
2023-04-26T01:29:49.242Z,2.50
2023-04-26T01:32:17.733Z,3.00
2023-04-26T01:34:46.303Z,3.00
2023-04-26T01:37:14.742Z,2.50
2023-04-26T01:39:43.140Z,3.00
2023-04-26T01:42:11.603Z,2.25
2023-04-26T01:44:40.495Z,2.00
2023-04-26T01:47:08.841Z,2.75
2023-04-26T01:49:37.728Z,2.50
2023-04-26T01:52:06.494Z,4.00
2023-04-26T01:54:34.862Z,2.50
2023-04-26T01:57:03.660Z,1.75
2023-04-26T01:59:32.072Z,2.00
2023-04-26T02:02:00.719Z,2.00
2023-04-26T02:04:29.531Z,2.25
2023-04-26T02:06:58.309Z,3.25
2023-04-26T02:09:26.728Z,2.75
2023-04-26T02:11:55.204Z,3.00
2023-04-26T02:14:23.657Z,2.00
2023-04-26T02:16:52.870Z,2.00
2023-04-26T02:19:21.827Z,2.50
2023-04-26T02:21:59.047Z,1.50
2023-04-26T02:24:27.536Z,2.00
2023-04-26T02:26:55.981Z,2.00
2023-04-26T02:29:39.920Z,2.00
2023-04-26T02:32:11.820Z,2.25
2023-04-26T02:34:40.343Z,2.00
2023-04-26T02:37:08.897Z,2.00
2023-04-26T02:39:37.588Z,2.00
2023-04-26T02:42:11.615Z,3.00
2023-04-26T02:44:40.603Z,2.75
2023-04-26T02:47:09.077Z,1.75
2023-04-26T02:49:37.639Z,2.00
2023-04-26T02:52:06.224Z,2.75
2023-04-26T02:54:34.684Z,2.50
2023-04-26T02:57:03.107Z,2.75
2023-04-26T02:59:31.607Z,3.00
2023-04-26T03:02:00.071Z,2.00
2023-04-26T03:04:28.743Z,3.00
2023-04-26T03:06:57.189Z,4.00
2023-04-26T03:09:25.593Z,4.00
2023-04-26T03:11:55.093Z,5.00
2023-04-26T03:14:23.645Z,3.50
2023-04-26T03:16:52.399Z,3.00
2023-04-26T03:19:21.339Z,4.00
2023-04-26T03:21:49.769Z,2.75
2023-04-26T03:24:18.489Z,3.00
2023-04-26T03:26:47.221Z,4.00
2023-04-26T03:29:15.791Z,2.75
2023-04-26T03:31:44.289Z,5.00
2023-04-26T03:34:12.757Z,5.00
2023-04-26T03:36:41.214Z,3.00
2023-04-26T03:39:09.887Z,4.25
2023-04-26T03:41:40.424Z,5.50
2023-04-26T03:44:09.019Z,4.00
2023-04-26T03:46:37.480Z,5.00
2023-04-26T03:49:05.924Z,5.25
2023-04-26T03:51:34.396Z,4.75
2023-04-26T03:54:02.866Z,5.00
2023-04-26T03:56:31.225Z,6.25
2023-04-26T03:58:59.823Z,6.00
2023-04-26T04:01:28.587Z,5.50
2023-04-26T04:03:57.473Z,6.75
2023-04-26T04:06:26.270Z,4.75
2023-04-26T04:08:54.964Z,4.00
2023-04-26T04:11:24.230Z,7.00
2023-04-26T04:13:52.635Z,8.25
2023-04-26T04:16:21.228Z,6.00
2023-04-26T04:18:50.831Z,6.00
2023-04-26T04:21:19.428Z,6.00
2023-04-26T04:23:48.901Z,5.00
2023-04-26T04:26:18.428Z,6.25
2023-04-26T04:28:48.066Z,6.75
2023-04-26T04:31:16.511Z,4.75
2023-04-26T04:33:44.944Z,6.75
2023-04-26T04:36:14.064Z,6.50
2023-04-26T04:38:42.458Z,6.25
2023-04-26T04:41:11.273Z,4.25
2023-04-26T04:43:40.087Z,6.00
2023-04-26T04:46:09.592Z,7.25
2023-04-26T04:48:39.708Z,8.50
2023-04-26T04:51:09.044Z,6.50
2023-04-26T04:53:37.507Z,8.25
2023-04-26T04:56:06.310Z,5.50
2023-04-26T04:58:34.708Z,6.50
2023-04-26T05:01:03.704Z,5.00
2023-04-26T05:03:34.763Z,6.25
2023-04-26T05:06:03.684Z,7.25
2023-04-26T05:08:32.344Z,5.75
2023-04-26T05:11:00.745Z,7.50
2023-04-26T05:13:29.047Z,7.50
2023-04-26T05:15:57.453Z,6.50
2023-04-26T05:18:25.946Z,6.75
2023-04-26T05:20:54.362Z,8.50
2023-04-26T05:23:22.788Z,9.00
2023-04-26T05:25:52.051Z,8.25
2023-04-26T05:28:20.603Z,7.75
2023-04-26T05:30:49.551Z,7.50
2023-04-26T05:33:18.021Z,8.00
2023-04-26T05:35:46.858Z,7.75
2023-04-26T05:38:15.309Z,6.50
2023-04-26T05:40:43.761Z,9.00
2023-04-26T05:43:12.138Z,6.50
2023-04-26T05:45:40.650Z,6.25
2023-04-26T05:48:09.092Z,8.25
2023-04-26T05:50:39.890Z,7.00
2023-04-26T05:53:08.475Z,8.25
2023-04-26T05:55:38.587Z,8.25
2023-04-26T05:58:07.488Z,7.50
2023-04-26T06:00:36.710Z,7.00
2023-04-26T06:03:05.324Z,8.50
2023-04-26T06:05:34.268Z,8.50
2023-04-26T06:08:02.784Z,7.25
2023-04-26T06:10:31.300Z,7.75
2023-04-26T06:12:59.709Z,8.00
2023-04-26T06:15:28.829Z,8.25
2023-04-26T06:17:57.260Z,8.75
2023-04-26T06:20:25.778Z,10.00
2023-04-26T06:22:54.203Z,10.25
2023-04-26T06:25:22.629Z,9.75
2023-04-26T06:27:51.100Z,9.25
2023-04-26T06:30:19.530Z,8.50
2023-04-26T06:32:47.987Z,8.75
2023-04-26T06:35:16.512Z,8.25
2023-04-26T06:37:44.888Z,9.00
2023-04-26T06:40:16.807Z,8.75
2023-04-26T06:42:45.190Z,9.25
2023-04-26T06:45:13.791Z,10.00
2023-04-26T06:47:42.316Z,8.75
2023-04-26T06:50:11.504Z,9.50
2023-04-26T06:52:40.015Z,9.50
2023-04-26T06:55:09.204Z,9.50
2023-04-26T06:57:37.788Z,10.25
2023-04-26T07:00:07.245Z,10.25
2023-04-26T07:02:35.729Z,10.25
2023-04-26T07:05:04.344Z,11.75
2023-04-26T07:07:32.877Z,11.50
2023-04-26T07:10:01.425Z,10.75
2023-04-26T07:12:29.923Z,11.00
2023-04-26T07:14:58.693Z,11.75
2023-04-26T07:17:27.067Z,10.75
2023-04-26T07:19:56.259Z,10.00
2023-04-26T07:22:25.201Z,11.25
2023-04-26T07:24:53.587Z,12.50
2023-04-26T07:27:22.025Z,9.75
2023-04-26T07:29:50.549Z,11.50
2023-04-26T07:32:19.002Z,11.50
2023-04-26T07:34:47.619Z,9.00
2023-04-26T07:37:15.991Z,10.75
2023-04-26T07:39:44.329Z,12.25
2023-04-26T07:42:12.743Z,13.50
2023-04-26T07:44:41.242Z,13.75
2023-04-26T07:47:15.861Z,12.75
2023-04-26T07:49:45.690Z,10.50
2023-04-26T07:52:15.454Z,10.50
2023-04-26T07:54:46.570Z,10.50
2023-04-26T07:57:15.578Z,10.50
2023-04-26T07:59:44.061Z,12.00
2023-04-26T08:02:12.776Z,12.50
2023-04-26T08:04:51.283Z,13.00
2023-04-26T08:07:20.912Z,12.75
2023-04-26T08:09:50.161Z,10.75
2023-04-26T08:12:18.601Z,11.75
2023-04-26T08:14:47.464Z,12.00
2023-04-26T08:17:16.004Z,11.00
2023-04-26T08:19:44.459Z,14.75
2023-04-26T08:22:12.873Z,13.25
2023-04-26T08:24:41.344Z,11.75
2023-04-26T08:27:09.849Z,11.50
2023-04-26T08:29:38.338Z,10.50
2023-04-26T08:32:06.840Z,13.25
2023-04-26T08:34:35.252Z,12.25
2023-04-26T08:37:03.760Z,10.25
2023-04-26T08:39:32.249Z,12.00
2023-04-26T08:42:15.605Z,10.50
2023-04-26T08:44:45.312Z,11.25
2023-04-26T08:47:39.824Z,10.00
2023-04-26T08:50:09.601Z,10.75
2023-04-26T08:52:39.504Z,10.00
2023-04-26T08:55:11.037Z,10.75
2023-04-26T08:57:41.844Z,12.50
2023-04-26T09:00:14.437Z,13.00
2023-04-26T09:02:44.382Z,11.00
2023-04-26T09:05:13.284Z,13.00
2023-04-26T09:07:43.325Z,12.00
2023-04-26T09:10:13.863Z,11.75
2023-04-26T09:12:42.526Z,10.75
2023-04-26T09:15:11.654Z,13.00
2023-04-26T09:17:42.455Z,13.50
2023-04-26T09:20:31.577Z,13.25
2023-04-26T09:23:08.333Z,13.00
2023-04-26T09:25:37.662Z,11.00
2023-04-26T09:28:22.096Z,11.50
2023-04-26T09:30:50.756Z,12.50
2023-04-26T09:33:20.452Z,11.75
2023-04-26T09:35:51.740Z,9.50
2023-04-26T09:38:20.250Z,10.50
2023-04-26T09:40:52.617Z,10.75
2023-04-26T09:43:24.217Z,11.00
2023-04-26T09:45:56.405Z,9.00
2023-04-26T09:48:31.576Z,9.75
2023-04-26T09:51:10.325Z,11.00
2023-04-26T09:53:42.311Z,9.00
2023-04-26T09:56:19.868Z,11.00
2023-04-26T09:59:09.042Z,10.50
2023-04-26T10:01:37.833Z,8.50
2023-04-26T10:04:08.479Z,9.25
2023-04-26T10:06:37.477Z,9.50
2023-04-26T10:09:07.375Z,11.25
2023-04-26T10:11:37.501Z,12.00
2023-04-26T10:14:07.576Z,10.75
2023-04-26T10:16:37.754Z,10.50
2023-04-26T10:19:06.269Z,10.00
2023-04-26T10:21:39.157Z,8.75
2023-04-26T10:24:08.646Z,10.00
2023-04-26T10:26:55.631Z,9.50
2023-04-26T10:29:25.773Z,8.75
2023-04-26T10:32:17.673Z,9.75
2023-04-26T10:34:46.546Z,8.50
2023-04-26T10:37:15.665Z,11.00
2023-04-26T10:39:48.561Z,9.00
2023-04-26T10:42:28.179Z,10.00
2023-04-26T10:44:59.315Z,9.50
2023-04-26T10:47:32.740Z,10.00
2023-04-26T10:50:12.272Z,10.75
2023-04-26T10:53:06.519Z,10.75
2023-04-26T10:55:42.750Z,9.50
2023-04-26T10:58:34.445Z,11.00
2023-04-26T11:01:14.475Z,12.25
2023-04-26T11:03:43.229Z,12.00
2023-04-26T11:06:16.239Z,10.25
2023-04-26T11:08:45.531Z,14.50
2023-04-26T11:11:14.700Z,10.00
2023-04-26T11:13:44.996Z,11.00
2023-04-26T11:16:18.320Z,8.50
2023-04-26T11:18:54.357Z,9.75
2023-04-26T11:21:23.253Z,9.75
2023-04-26T11:23:56.007Z,11.25
2023-04-26T11:26:25.773Z,11.75
2023-04-26T11:28:54.556Z,10.50
2023-04-26T11:31:23.180Z,10.75
2023-04-26T11:33:51.707Z,10.75
2023-04-26T11:36:20.716Z,10.00
2023-04-26T11:38:49.655Z,9.75
2023-04-26T11:41:18.934Z,11.50
2023-04-26T11:43:47.393Z,12.50
2023-04-26T11:46:15.803Z,12.25
2023-04-26T11:48:44.540Z,12.50
2023-04-26T11:51:13.366Z,12.25
2023-04-26T11:53:43.641Z,13.50
2023-04-26T11:56:17.332Z,12.00
2023-04-26T11:58:55.391Z,10.75
2023-04-26T12:01:29.242Z,11.25
2023-04-26T12:03:59.812Z,12.25
2023-04-26T12:06:33.785Z,11.75
2023-04-26T12:09:10.109Z,11.75
2023-04-26T12:11:38.940Z,12.00
2023-04-26T12:14:08.843Z,12.75
2023-04-26T12:16:40.504Z,12.25
2023-04-26T12:19:09.871Z,12.75
2023-04-26T12:21:45.272Z,10.50
2023-04-26T12:24:28.060Z,11.00
2023-04-26T12:26:56.909Z,14.50
2023-04-26T12:29:25.535Z,11.25
2023-04-26T12:31:53.982Z,13.00
2023-04-26T12:34:22.372Z,12.50
2023-04-26T12:36:50.776Z,14.00
2023-04-26T12:39:19.178Z,16.00
2023-04-26T12:41:47.731Z,12.75
2023-04-26T12:44:16.230Z,14.75
2023-04-26T12:46:45.027Z,13.75
2023-04-26T12:49:13.575Z,15.75
2023-04-26T12:51:41.981Z,15.75
2023-04-26T12:54:10.313Z,16.75
2023-04-26T12:56:44.531Z,15.25
2023-04-26T12:59:13.187Z,14.75
2023-04-26T13:01:42.090Z,14.50
2023-04-26T13:04:11.222Z,16.50
2023-04-26T13:06:39.953Z,16.00
2023-04-26T13:09:09.100Z,16.00
2023-04-26T13:11:37.522Z,16.50
2023-04-26T13:14:08.015Z,14.75
2023-04-26T13:16:36.807Z,14.00
2023-04-26T13:19:05.282Z,16.50
2023-04-26T13:21:33.713Z,16.75
2023-04-26T13:24:02.257Z,15.75
2023-04-26T13:26:30.652Z,14.25
2023-04-26T13:28:59.101Z,13.50
2023-04-26T13:31:27.746Z,15.25
2023-04-26T13:33:56.314Z,14.00
2023-04-26T13:36:24.729Z,17.25
2023-04-26T13:38:53.099Z,14.50
2023-04-26T13:41:21.580Z,14.75
2023-04-26T13:43:49.958Z,12.75
2023-04-26T13:46:18.416Z,16.00
2023-04-26T13:48:46.825Z,13.50
2023-04-26T13:51:15.185Z,15.00
2023-04-26T13:53:43.588Z,15.00
2023-04-26T13:56:11.978Z,13.75
2023-04-26T13:58:41.776Z,14.25
2023-04-26T14:01:10.330Z,15.00
2023-04-26T14:03:38.936Z,14.00
2023-04-26T14:06:07.678Z,15.00
2023-04-26T14:08:36.525Z,14.75
2023-04-26T14:11:05.252Z,14.50
2023-04-26T14:13:33.628Z,14.25
2023-04-26T14:16:02.244Z,13.00
2023-04-26T14:18:30.756Z,12.75
2023-04-26T14:20:59.212Z,14.50
2023-04-26T14:23:27.653Z,13.25
2023-04-26T14:25:56.158Z,16.00
2023-04-26T14:28:24.787Z,16.25
2023-04-26T14:30:53.211Z,13.75
2023-04-26T14:33:23.748Z,12.50
2023-04-26T14:35:53.527Z,15.50
2023-04-26T14:38:22.221Z,16.00
2023-04-26T14:40:50.753Z,15.50
2023-04-26T14:43:19.285Z,14.25
2023-04-26T14:45:47.890Z,15.50
2023-04-26T14:48:16.779Z,15.50
2023-04-26T14:50:45.468Z,14.00
2023-04-26T14:53:13.914Z,15.50
2023-04-26T14:55:42.388Z,14.50
2023-04-26T14:58:10.768Z,14.25
2023-04-26T15:00:39.990Z,14.50
2023-04-26T15:03:08.505Z,15.50
2023-04-26T15:05:36.990Z,13.75
2023-04-26T15:08:05.633Z,15.75
2023-04-26T15:10:34.034Z,16.25
2023-04-26T15:13:02.567Z,16.00
2023-04-26T15:15:30.991Z,14.25
2023-04-26T15:17:59.536Z,13.50
2023-04-26T15:20:27.955Z,16.50
2023-04-26T15:22:56.348Z,14.25
2023-04-26T15:25:24.854Z,11.25
2023-04-26T15:27:53.273Z,14.50
2023-04-26T15:30:21.775Z,15.25
2023-04-26T15:32:51.844Z,14.50
2023-04-26T15:35:20.327Z,13.75
2023-04-26T15:37:48.914Z,15.50
2023-04-26T15:40:17.637Z,14.50
2023-04-26T15:42:46.090Z,14.75
2023-04-26T15:45:14.453Z,14.75
2023-04-26T15:47:43.024Z,16.75
2023-04-26T15:50:11.927Z,14.75
2023-04-26T15:52:41.648Z,14.00
2023-04-26T15:55:10.773Z,15.50
2023-04-26T15:57:46.521Z,13.75
2023-04-26T16:00:15.850Z,15.00
2023-04-26T16:02:46.311Z,15.75
2023-04-26T16:05:15.605Z,16.75
2023-04-26T16:07:44.729Z,16.00
2023-04-26T16:10:15.221Z,18.00
2023-04-26T16:12:45.853Z,16.75
2023-04-26T16:15:14.920Z,16.00
2023-04-26T16:17:43.371Z,17.50
2023-04-26T16:20:12.578Z,14.50
2023-04-26T16:22:40.980Z,16.50
2023-04-26T16:25:10.674Z,15.00
2023-04-26T16:27:39.144Z,15.50
2023-04-26T16:30:08.764Z,16.50
2023-04-26T16:32:37.292Z,16.50
2023-04-26T16:35:06.264Z,16.75
2023-04-26T16:37:35.439Z,15.00
2023-04-26T16:40:05.914Z,15.25
2023-04-26T16:42:34.323Z,17.00
2023-04-26T16:45:03.437Z,16.50
2023-04-26T16:47:32.341Z,16.50
2023-04-26T16:50:00.976Z,17.50
2023-04-26T16:52:29.428Z,14.75
2023-04-26T16:54:58.357Z,16.00
2023-04-26T16:57:26.873Z,15.25
2023-04-26T16:59:55.274Z,16.00
2023-04-26T17:02:23.879Z,16.00
2023-04-26T17:04:52.560Z,14.75
2023-04-26T17:07:20.999Z,14.75
2023-04-26T17:09:49.412Z,18.00
2023-04-26T17:12:17.793Z,15.50
2023-04-26T17:14:46.456Z,15.25
2023-04-26T17:17:14.934Z,16.00
2023-04-26T17:19:43.490Z,17.00
2023-04-26T17:22:13.991Z,16.75
2023-04-26T17:24:42.535Z,14.50
2023-04-26T17:27:11.000Z,14.25
2023-04-26T17:29:39.367Z,16.75
2023-04-26T17:32:07.979Z,16.50
2023-04-26T17:34:37.774Z,15.25
2023-04-26T17:37:06.175Z,15.25
2023-04-26T17:39:34.562Z,15.50
2023-04-26T17:42:07.629Z,15.00
2023-04-26T17:44:35.998Z,13.50
2023-04-26T17:47:04.488Z,15.25
2023-04-26T17:49:33.121Z,16.00
2023-04-26T17:52:01.487Z,16.00
2023-04-26T17:54:30.421Z,15.25
2023-04-26T17:56:59.445Z,14.25
2023-04-26T17:59:28.049Z,16.50
2023-04-26T18:01:56.470Z,16.75
2023-04-26T18:04:25.144Z,16.25
2023-04-26T18:06:53.655Z,13.25
2023-04-26T18:09:22.632Z,14.25
2023-04-26T18:11:51.167Z,15.25
2023-04-26T18:14:19.663Z,15.50
2023-04-26T18:16:48.164Z,15.75
2023-04-26T18:19:17.077Z,14.25
2023-04-26T18:21:45.448Z,11.25
2023-04-26T18:24:13.856Z,11.50
2023-04-26T18:26:42.498Z,13.25
2023-04-26T18:29:10.928Z,12.50
2023-04-26T18:31:39.552Z,12.50
2023-04-26T18:34:08.232Z,12.00
2023-04-26T18:36:36.987Z,11.25
2023-04-26T18:39:05.684Z,11.25
2023-04-26T18:41:34.164Z,10.25
2023-04-26T18:44:02.555Z,11.00
2023-04-26T18:46:31.086Z,11.25
2023-04-26T18:48:59.518Z,13.50
2023-04-26T18:51:28.694Z,11.25
2023-04-26T18:53:58.603Z,9.50
2023-04-26T18:56:27.240Z,11.75
2023-04-26T18:58:56.139Z,12.25
2023-04-26T19:01:26.733Z,11.50
2023-04-26T19:03:55.576Z,11.75
2023-04-26T19:06:24.195Z,12.50
2023-04-26T19:08:52.936Z,13.75
2023-04-26T19:11:21.396Z,12.50
2023-04-26T19:13:49.794Z,12.00
2023-04-26T19:16:18.463Z,11.50
2023-04-26T19:18:48.234Z,12.75
2023-04-26T19:21:17.285Z,11.75
2023-04-26T19:23:46.730Z,11.50
2023-04-26T19:26:15.344Z,13.25
2023-04-26T19:28:43.770Z,10.75
2023-04-26T19:31:16.000Z,11.50
2023-04-26T19:33:45.630Z,13.00
2023-04-26T19:36:15.009Z,12.75
2023-04-26T19:38:43.928Z,11.50
2023-04-26T19:41:13.024Z,10.75
2023-04-26T19:43:41.384Z,10.00
2023-04-26T19:46:14.450Z,10.50
2023-04-26T19:48:43.363Z,11.50
2023-04-26T19:51:18.349Z,9.00
2023-04-26T19:53:46.798Z,10.00
2023-04-26T19:56:15.262Z,9.50
2023-04-26T19:58:45.000Z,9.00
2023-04-26T20:01:13.427Z,8.25
2023-04-26T20:03:42.562Z,6.75
2023-04-26T20:06:12.698Z,7.50
2023-04-26T20:08:42.085Z,7.25
2023-04-26T20:11:15.829Z,5.75
2023-04-26T20:13:44.719Z,8.00
2023-04-26T20:16:14.017Z,6.75
2023-04-26T20:18:42.446Z,6.75
2023-04-26T20:21:10.839Z,5.25
2023-04-26T20:23:39.253Z,6.50
2023-04-26T20:26:07.671Z,7.00
2023-04-26T20:28:37.516Z,5.75
2023-04-26T20:31:08.028Z,7.00
2023-04-26T20:33:36.443Z,6.75
2023-04-26T20:36:04.912Z,6.00
2023-04-26T20:38:33.797Z,5.50
2023-04-26T20:41:02.165Z,6.00
2023-04-26T20:43:30.528Z,7.25
2023-04-26T20:45:59.447Z,6.00
2023-04-26T20:48:27.824Z,6.75
2023-04-26T20:50:56.740Z,6.50
2023-04-26T20:53:25.402Z,4.50
2023-04-26T20:55:54.845Z,6.00
2023-04-26T20:58:23.865Z,4.50
2023-04-26T21:00:53.733Z,6.25
2023-04-26T21:03:22.547Z,5.00
2023-04-26T21:05:51.229Z,5.25
2023-04-26T21:08:19.630Z,4.00
2023-04-26T21:10:48.761Z,5.75
2023-04-26T21:13:17.205Z,4.00
2023-04-26T21:15:45.602Z,5.50
2023-04-26T21:18:14.697Z,5.50
2023-04-26T21:20:43.045Z,4.00
2023-04-26T21:23:12.807Z,6.00
2023-04-26T21:25:46.987Z,3.75
2023-04-26T21:28:19.322Z,6.50
2023-04-26T21:30:48.252Z,3.25
2023-04-26T21:33:17.607Z,4.25
2023-04-26T21:35:47.104Z,5.25
2023-04-26T21:38:18.177Z,4.75
2023-04-26T21:40:46.956Z,5.00
2023-04-26T21:43:18.943Z,5.50
2023-04-26T21:46:10.720Z,4.25
2023-04-26T21:48:40.240Z,2.75
2023-04-26T21:51:08.689Z,3.50
2023-04-26T21:53:46.705Z,3.50
2023-04-26T21:56:17.708Z,4.50
2023-04-26T21:58:47.716Z,3.00
2023-04-26T22:01:17.803Z,4.00
2023-04-26T22:03:46.410Z,4.25
2023-04-26T22:06:14.958Z,4.75
2023-04-26T22:08:43.434Z,4.00
2023-04-26T22:11:12.018Z,4.50
2023-04-26T22:13:40.856Z,3.00
2023-04-26T22:16:09.315Z,3.50
2023-04-26T22:18:37.764Z,3.50
2023-04-26T22:21:06.175Z,3.50
2023-04-26T22:23:34.913Z,3.50
2023-04-26T22:26:03.524Z,3.00
2023-04-26T22:28:32.091Z,4.00
2023-04-26T22:31:00.500Z,4.00
2023-04-26T22:33:28.978Z,4.00
2023-04-26T22:36:00.989Z,4.00
2023-04-26T22:38:34.409Z,3.00
2023-04-26T22:41:02.842Z,3.50
2023-04-26T22:43:32.115Z,3.00
2023-04-26T22:46:02.495Z,3.00
2023-04-26T22:48:32.693Z,82.75
2023-04-26T22:51:01.074Z,4.00
2023-04-26T22:53:29.472Z,4.00
2023-04-26T22:55:58.687Z,4.00
2023-04-26T22:58:27.192Z,4.00
2023-04-26T23:00:55.749Z,4.25
2023-04-26T23:03:24.268Z,3.75
2023-04-26T23:05:52.788Z,4.50
2023-04-26T23:08:21.190Z,4.00
2023-04-26T23:10:49.630Z,4.00
2023-04-26T23:13:18.012Z,4.50
2023-04-26T23:15:46.626Z,3.25
2023-04-26T23:18:15.482Z,4.25
2023-04-26T23:20:43.940Z,3.50
2023-04-26T23:23:12.546Z,14.50
2023-04-26T23:25:43.116Z,3.25
2023-04-26T23:28:11.524Z,5.00
2023-04-26T23:30:41.103Z,3.25
2023-04-26T23:33:09.594Z,4.00
2023-04-26T23:35:42.863Z,3.25
2023-04-26T23:38:11.314Z,4.75
2023-04-26T23:40:39.729Z,5.25
2023-04-26T23:43:08.186Z,3.75
2023-04-26T23:45:36.581Z,5.50
2023-04-26T23:48:05.139Z,4.50
2023-04-26T23:50:33.586Z,5.00
2023-04-26T23:53:04.399Z,3.75
2023-04-26T23:55:33.285Z,4.25
2023-04-26T23:58:02.036Z,4.25
